createdAt,value
2017-05-29T00:00:04.073Z,23.05
2017-05-29T00:02:39.561Z,21.57
2017-05-29T00:05:17.277Z,23.62
2017-05-29T00:07:52.812Z,22.48
2017-05-29T00:10:28.019Z,21.22
2017-05-29T00:13:03.446Z,20.27
2017-05-29T00:15:38.851Z,23.52
2017-05-29T00:18:14.339Z,27.03
2017-05-29T00:20:49.506Z,22.47
2017-05-29T00:23:24.957Z,20.23
2017-05-29T00:26:00.383Z,30.13
2017-05-29T00:28:35.741Z,20.50
2017-05-29T00:31:10.962Z,23.25
2017-05-29T00:33:46.110Z,26.37
2017-05-29T00:36:21.415Z,21.72
2017-05-29T00:38:56.728Z,20.88
2017-05-29T00:41:32.038Z,25.75
2017-05-29T00:44:07.316Z,22.57
2017-05-29T00:46:42.650Z,19.60
2017-05-29T00:49:17.961Z,25.20
2017-05-29T00:51:53.202Z,21.55
2017-05-29T00:54:28.504Z,25.00
2017-05-29T00:57:03.734Z,22.80
2017-05-29T00:59:38.991Z,23.62
2017-05-29T01:02:14.296Z,33.83
2017-05-29T01:04:49.624Z,27.43
2017-05-29T01:07:25.131Z,20.98
2017-05-29T01:10:00.471Z,25.62
2017-05-29T01:12:35.848Z,24.42
2017-05-29T01:15:11.246Z,23.07
2017-05-29T01:17:46.778Z,21.47
2017-05-29T01:20:22.051Z,23.07
2017-05-29T01:22:57.490Z,19.35
2017-05-29T01:25:32.701Z,20.57
2017-05-29T01:28:08.010Z,26.75
2017-05-29T01:30:43.268Z,25.20
2017-05-29T01:33:18.767Z,21.82
2017-05-29T01:35:54.065Z,22.98
2017-05-29T01:38:29.429Z,27.55
2017-05-29T01:41:04.862Z,21.50
2017-05-29T01:43:40.162Z,23.12
2017-05-29T01:46:15.465Z,23.30
2017-05-29T01:48:51.085Z,21.40
2017-05-29T01:51:26.294Z,26.87
2017-05-29T01:54:01.596Z,23.35
2017-05-29T01:56:36.974Z,29.35
2017-05-29T01:59:12.245Z,22.68
2017-05-29T02:01:47.559Z,27.65
2017-05-29T02:04:23.009Z,23.70
2017-05-29T02:06:58.250Z,25.10
2017-05-29T02:09:35.198Z,23.65
2017-05-29T02:12:11.469Z,23.98
2017-05-29T02:14:46.791Z,29.13
2017-05-29T02:17:22.017Z,23.80
2017-05-29T02:19:57.424Z,29.63
2017-05-29T02:22:32.954Z,27.02
2017-05-29T02:25:08.135Z,23.83
2017-05-29T02:27:43.575Z,26.02
2017-05-29T02:30:18.824Z,20.72
2017-05-29T02:32:54.381Z,24.42
2017-05-29T02:35:29.687Z,22.92
2017-05-29T02:38:05.038Z,25.53
2017-05-29T02:40:40.219Z,19.17
2017-05-29T02:43:15.686Z,30.60
2017-05-29T02:45:50.954Z,17.30
2017-05-29T02:48:26.132Z,24.55
2017-05-29T02:51:01.321Z,19.62
2017-05-29T02:53:36.659Z,20.55
2017-05-29T02:56:12.063Z,20.90
2017-05-29T02:58:47.391Z,22.53
2017-05-29T03:01:22.699Z,21.30
2017-05-29T03:03:58.086Z,17.15
2017-05-29T03:06:33.355Z,22.08
2017-05-29T03:09:08.797Z,22.75
2017-05-29T03:11:44.034Z,20.45
2017-05-29T03:14:19.524Z,27.40
2017-05-29T03:16:54.869Z,19.67
2017-05-29T03:19:30.240Z,19.33
2017-05-29T03:22:05.688Z,19.25
2017-05-29T03:24:41.021Z,20.73
2017-05-29T03:27:16.366Z,22.05
2017-05-29T03:29:51.620Z,21.20
2017-05-29T03:32:27.067Z,19.73
2017-05-29T03:35:02.377Z,16.60
2017-05-29T03:37:37.517Z,17.78
2017-05-29T03:40:12.824Z,18.23
2017-05-29T03:42:48.233Z,23.45
2017-05-29T03:45:24.328Z,19.92
2017-05-29T03:47:59.803Z,17.28
2017-05-29T03:50:35.235Z,15.63
2017-05-29T03:53:10.601Z,17.57
2017-05-29T03:55:45.973Z,21.58
2017-05-29T03:58:21.218Z,21.50
2017-05-29T04:00:56.525Z,19.80
2017-05-29T04:03:31.627Z,19.12
2017-05-29T04:06:06.820Z,21.10
2017-05-29T04:08:42.030Z,17.97
2017-05-29T04:11:17.298Z,20.75
2017-05-29T04:13:52.500Z,18.15
2017-05-29T04:16:27.826Z,18.23
2017-05-29T04:19:03.110Z,15.58
2017-05-29T04:21:38.359Z,17.32
2017-05-29T04:24:13.987Z,14.93
2017-05-29T04:26:50.163Z,17.07
2017-05-29T04:29:25.592Z,16.15
2017-05-29T04:32:00.879Z,18.30
2017-05-29T04:34:36.238Z,14.42
2017-05-29T04:37:11.501Z,15.65
2017-05-29T04:39:46.807Z,13.67
2017-05-29T04:42:22.233Z,12.05
2017-05-29T04:44:57.656Z,12.72
2017-05-29T04:47:32.818Z,12.40
2017-05-29T04:50:08.062Z,12.47
2017-05-29T04:52:43.311Z,15.20
2017-05-29T04:55:18.704Z,14.62
2017-05-29T04:57:54.014Z,15.27
2017-05-29T05:00:29.277Z,14.68
2017-05-29T05:03:04.695Z,13.92
2017-05-29T05:05:40.070Z,15.83
2017-05-29T05:08:15.299Z,14.37
2017-05-29T05:10:50.633Z,14.63
2017-05-29T05:13:25.986Z,14.00
2017-05-29T05:16:01.243Z,13.28
2017-05-29T05:18:36.790Z,15.27
2017-05-29T05:21:12.040Z,16.08
2017-05-29T05:23:47.222Z,14.87
2017-05-29T05:26:22.571Z,15.53
2017-05-29T05:28:57.973Z,15.75
2017-05-29T05:31:33.222Z,15.32
2017-05-29T05:34:08.517Z,14.98
2017-05-29T05:36:43.854Z,16.87
2017-05-29T05:39:19.166Z,14.37
2017-05-29T05:41:54.385Z,20.45
2017-05-29T05:44:29.628Z,16.28
2017-05-29T05:47:04.947Z,14.10
2017-05-29T05:49:40.470Z,15.78
2017-05-29T05:52:16.169Z,16.63
2017-05-29T05:54:54.412Z,18.72
2017-05-29T05:57:35.623Z,15.85
2017-05-29T06:00:16.052Z,15.25
2017-05-29T06:02:56.200Z,15.10
2017-05-29T06:05:36.726Z,15.47
2017-05-29T06:08:17.605Z,13.98
2017-05-29T06:10:57.420Z,20.23
2017-05-29T06:13:40.268Z,16.20
2017-05-29T06:16:20.420Z,16.48
2017-05-29T06:19:00.135Z,10.92
2017-05-29T06:21:36.263Z,11.48
2017-05-29T06:24:16.967Z,10.60
2017-05-29T06:26:57.204Z,10.67
2017-05-29T06:29:38.596Z,12.15
2017-05-29T06:32:23.540Z,10.45
2017-05-29T06:35:07.082Z,15.03
2017-05-29T06:37:49.722Z,11.63
2017-05-29T06:40:33.597Z,11.93
2017-05-29T06:43:16.756Z,11.43
2017-05-29T06:46:01.580Z,12.42
2017-05-29T06:48:44.758Z,11.45
2017-05-29T06:51:28.944Z,11.42
2017-05-29T06:54:13.358Z,11.90
2017-05-29T06:56:56.328Z,11.58
2017-05-29T06:59:37.039Z,12.22
2017-05-29T07:02:18.498Z,11.35
2017-05-29T07:04:59.253Z,15.62
2017-05-29T07:07:36.765Z,11.55
2017-05-29T07:10:11.990Z,12.48
2017-05-29T07:12:47.280Z,11.02
2017-05-29T07:15:22.678Z,11.48
2017-05-29T07:17:58.359Z,10.83
2017-05-29T07:20:33.906Z,10.43
2017-05-29T07:23:09.522Z,9.68
2017-05-29T07:25:44.847Z,9.43
2017-05-29T07:28:20.488Z,10.90
2017-05-29T07:30:55.763Z,9.45
2017-05-29T07:33:31.054Z,10.80
2017-05-29T07:36:06.360Z,11.88
2017-05-29T07:38:41.862Z,11.28
2017-05-29T07:41:17.228Z,9.47
2017-05-29T07:43:52.773Z,10.87
2017-05-29T07:46:28.017Z,10.17
2017-05-29T07:49:03.514Z,12.62
2017-05-29T07:51:38.845Z,12.60
2017-05-29T07:54:14.230Z,9.63
2017-05-29T07:56:49.680Z,9.33
2017-05-29T07:59:25.024Z,9.27
2017-05-29T08:02:00.379Z,10.82
2017-05-29T08:04:35.716Z,11.65
2017-05-29T08:07:11.002Z,10.75
2017-05-29T08:09:46.394Z,13.52
2017-05-29T08:12:21.697Z,11.10
2017-05-29T08:14:57.065Z,11.05
2017-05-29T08:17:32.434Z,11.95
2017-05-29T08:20:07.777Z,10.40
2017-05-29T08:22:43.074Z,13.43
2017-05-29T08:25:18.387Z,12.05
2017-05-29T08:27:53.879Z,13.17
2017-05-29T08:30:29.120Z,12.30
2017-05-29T08:33:04.476Z,11.17
2017-05-29T08:35:39.730Z,11.97
2017-05-29T08:38:15.031Z,12.80
2017-05-29T08:40:50.678Z,13.92
2017-05-29T08:43:26.022Z,11.52
2017-05-29T08:46:01.503Z,12.03
2017-05-29T08:48:36.740Z,10.57
2017-05-29T08:51:12.078Z,9.03
2017-05-29T08:53:47.362Z,8.65
2017-05-29T08:56:22.786Z,10.53
2017-05-29T08:58:57.948Z,8.92
2017-05-29T09:01:33.504Z,8.75
2017-05-29T09:04:08.756Z,9.78
2017-05-29T09:06:44.406Z,8.32
2017-05-29T09:09:19.799Z,9.13
2017-05-29T09:11:55.149Z,8.67
2017-05-29T09:14:30.385Z,8.80
2017-05-29T09:17:05.914Z,12.10
2017-05-29T09:19:41.262Z,10.90
2017-05-29T09:22:16.758Z,10.02
2017-05-29T09:24:51.939Z,8.62
2017-05-29T09:27:27.198Z,9.73
2017-05-29T09:30:02.426Z,8.42
2017-05-29T09:32:37.746Z,8.45
2017-05-29T09:35:13.370Z,8.22
2017-05-29T09:37:48.728Z,8.70
2017-05-29T09:40:23.925Z,9.78
2017-05-29T09:42:59.270Z,9.47
2017-05-29T09:45:34.614Z,9.88
2017-05-29T09:48:09.958Z,7.23
2017-05-29T09:50:45.210Z,8.20
2017-05-29T09:53:20.592Z,8.20
2017-05-29T09:55:55.769Z,8.02
2017-05-29T09:58:31.043Z,8.18
2017-05-29T10:01:06.338Z,7.03
2017-05-29T10:03:41.641Z,8.50
2017-05-29T10:06:17.045Z,8.18
2017-05-29T10:08:52.479Z,7.55
2017-05-29T10:11:27.723Z,6.45
2017-05-29T10:14:03.074Z,7.60
2017-05-29T10:16:38.374Z,5.80
2017-05-29T10:19:13.625Z,6.03
2017-05-29T10:21:48.806Z,7.03
2017-05-29T10:24:24.128Z,6.50
2017-05-29T10:26:59.642Z,5.22
2017-05-29T10:29:34.995Z,6.85
2017-05-29T10:32:10.442Z,6.58
2017-05-29T10:34:45.869Z,6.07
2017-05-29T10:37:22.669Z,6.90
2017-05-29T10:39:58.011Z,5.43
2017-05-29T10:42:33.448Z,5.88
2017-05-29T10:45:08.948Z,6.60
2017-05-29T10:47:45.580Z,5.48
2017-05-29T10:50:20.775Z,7.16
2017-05-29T10:52:56.091Z,4.72
2017-05-29T10:55:31.428Z,5.22
2017-05-29T10:58:06.814Z,5.16
2017-05-29T11:00:42.108Z,5.52
2017-05-29T11:03:17.431Z,5.66
2017-05-29T11:05:52.993Z,6.58
2017-05-29T11:08:28.262Z,5.62
2017-05-29T11:11:03.476Z,5.48
2017-05-29T11:13:38.758Z,5.68
2017-05-29T11:16:14.089Z,5.92
2017-05-29T11:18:49.278Z,6.32
2017-05-29T11:21:24.601Z,6.86
2017-05-29T11:23:59.826Z,6.06
2017-05-29T11:26:35.277Z,6.15
2017-05-29T11:29:10.578Z,6.48
2017-05-29T11:31:45.884Z,6.32
2017-05-29T11:34:21.278Z,7.45
2017-05-29T11:36:56.492Z,6.58
2017-05-29T11:39:31.908Z,6.72
2017-05-29T11:42:07.571Z,6.48
2017-05-29T11:44:43.051Z,6.40
2017-05-29T11:47:22.789Z,7.20
2017-05-29T11:50:03.355Z,6.64
2017-05-29T11:52:44.391Z,6.96
2017-05-29T11:55:26.268Z,7.15
2017-05-29T11:58:07.731Z,6.74
2017-05-29T12:00:43.561Z,7.50
2017-05-29T12:03:18.920Z,7.08
2017-05-29T12:05:54.202Z,7.78
2017-05-29T12:08:29.700Z,7.32
2017-05-29T12:11:04.932Z,7.94
2017-05-29T12:13:40.167Z,7.20
2017-05-29T12:16:15.405Z,8.72
2017-05-29T12:18:50.694Z,8.18
2017-05-29T12:21:25.951Z,7.58
2017-05-29T12:24:01.279Z,7.12
2017-05-29T12:26:36.701Z,8.28
2017-05-29T12:29:12.109Z,7.62
2017-05-29T12:31:47.432Z,7.90
2017-05-29T12:34:22.738Z,7.38
2017-05-29T12:36:58.026Z,7.58
2017-05-29T12:39:33.457Z,8.32
2017-05-29T12:42:08.610Z,8.92
2017-05-29T12:44:43.903Z,8.62
2017-05-29T12:47:19.093Z,8.42
2017-05-29T12:49:54.543Z,8.64
2017-05-29T12:52:29.800Z,11.06
2017-05-29T12:55:05.314Z,6.28
2017-05-29T12:57:40.698Z,8.30
2017-05-29T13:00:16.161Z,7.94
2017-05-29T13:02:51.566Z,9.68
2017-05-29T13:05:27.001Z,8.68
2017-05-29T13:08:02.255Z,9.58
2017-05-29T13:10:37.642Z,11.44
2017-05-29T13:13:12.948Z,11.68
2017-05-29T13:15:48.241Z,14.88
2017-05-29T13:18:23.507Z,11.34
2017-05-29T13:20:58.854Z,10.42
2017-05-29T13:23:34.331Z,11.50
2017-05-29T13:26:09.518Z,10.36
2017-05-29T13:28:44.916Z,10.28
2017-05-29T13:31:20.164Z,10.66
2017-05-29T13:33:55.424Z,12.06
2017-05-29T13:36:30.673Z,10.80
2017-05-29T13:39:06.124Z,11.86
2017-05-29T13:41:41.486Z,10.06
2017-05-29T13:44:16.878Z,10.40
2017-05-29T13:46:52.198Z,11.38
2017-05-29T13:49:27.761Z,11.44
2017-05-29T13:52:02.928Z,11.14
2017-05-29T13:54:38.261Z,12.02
2017-05-29T13:57:13.646Z,11.70
2017-05-29T13:59:48.973Z,11.12
2017-05-29T14:02:24.189Z,9.48
2017-05-29T14:04:59.372Z,9.40
2017-05-29T14:07:34.658Z,10.96
2017-05-29T14:10:09.886Z,11.42
2017-05-29T14:12:45.270Z,10.68
2017-05-29T14:15:20.582Z,11.78
2017-05-29T14:17:55.951Z,9.52
2017-05-29T14:20:31.521Z,8.36
2017-05-29T14:23:06.785Z,8.38
2017-05-29T14:25:42.572Z,9.52
2017-05-29T14:28:17.888Z,10.00
2017-05-29T14:30:53.161Z,10.68
2017-05-29T14:33:28.546Z,9.36
2017-05-29T14:36:03.783Z,8.16
2017-05-29T14:38:39.570Z,7.66
2017-05-29T14:41:14.880Z,6.80
2017-05-29T14:43:50.205Z,7.80
2017-05-29T14:46:25.506Z,5.60
2017-05-29T14:49:01.550Z,6.94
2017-05-29T14:51:36.985Z,6.66
2017-05-29T14:54:12.316Z,6.76
2017-05-29T14:56:47.640Z,6.24
2017-05-29T14:59:23.129Z,7.96
2017-05-29T15:01:58.506Z,7.56
2017-05-29T15:04:33.916Z,5.22
2017-05-29T15:07:09.315Z,5.06
2017-05-29T15:09:44.705Z,6.70
2017-05-29T15:12:19.920Z,7.26
2017-05-29T15:14:55.302Z,6.32
2017-05-29T15:17:30.675Z,7.06
2017-05-29T15:20:06.046Z,6.66
2017-05-29T15:22:41.372Z,7.52
2017-05-29T15:25:16.656Z,8.00
2017-05-29T15:27:51.884Z,7.62
2017-05-29T15:30:27.121Z,7.98
2017-05-29T15:33:02.532Z,7.92
2017-05-29T15:35:38.170Z,6.86
2017-05-29T15:38:13.489Z,7.26
2017-05-29T15:40:49.095Z,6.42
2017-05-29T15:43:24.387Z,7.26
2017-05-29T15:45:59.744Z,10.10
2017-05-29T15:48:34.993Z,9.52
2017-05-29T15:51:10.507Z,10.50
2017-05-29T15:53:45.710Z,11.88
2017-05-29T15:56:21.096Z,10.32
2017-05-29T15:58:56.464Z,11.94
2017-05-29T16:01:32.212Z,13.82
2017-05-29T16:04:07.463Z,13.14
2017-05-29T16:06:43.099Z,11.34
2017-05-29T16:09:18.710Z,9.40
2017-05-29T16:11:54.179Z,10.30
2017-05-29T16:14:29.399Z,9.58
2017-05-29T16:17:04.626Z,9.64
2017-05-29T16:19:40.000Z,9.08
2017-05-29T16:22:15.349Z,10.28
2017-05-29T16:24:50.826Z,11.22
2017-05-29T16:27:26.183Z,14.04
2017-05-29T16:30:02.582Z,12.22
2017-05-29T16:32:37.924Z,15.26
2017-05-29T16:35:13.242Z,12.52
2017-05-29T16:37:48.669Z,12.48
2017-05-29T16:40:24.057Z,12.96
2017-05-29T16:42:59.303Z,13.28
2017-05-29T16:45:35.485Z,12.96
2017-05-29T16:48:11.944Z,14.30
2017-05-29T16:50:47.351Z,14.02
2017-05-29T16:53:22.763Z,14.46
2017-05-29T16:55:58.278Z,13.56
2017-05-29T16:58:33.604Z,15.40
2017-05-29T17:01:09.015Z,15.82
2017-05-29T17:03:44.904Z,15.02
2017-05-29T17:06:20.208Z,15.72
2017-05-29T17:08:56.017Z,14.64
2017-05-29T17:11:32.241Z,16.24
2017-05-29T17:14:07.492Z,14.68
2017-05-29T17:16:42.940Z,13.66
2017-05-29T17:19:18.323Z,19.78
2017-05-29T17:21:53.559Z,15.04
2017-05-29T17:24:28.839Z,14.18
2017-05-29T17:27:04.449Z,14.10
2017-05-29T17:29:39.855Z,12.74
2017-05-29T17:32:15.118Z,14.40
2017-05-29T17:34:51.069Z,13.48
2017-05-29T17:37:26.379Z,14.68
2017-05-29T17:40:01.571Z,15.04
2017-05-29T17:42:36.900Z,12.66
2017-05-29T17:45:12.114Z,14.66
2017-05-29T17:47:47.398Z,14.14
2017-05-29T17:50:22.899Z,13.48
2017-05-29T17:52:58.661Z,15.08
2017-05-29T17:55:34.050Z,14.84
2017-05-29T17:58:09.315Z,15.08
2017-05-29T18:00:44.512Z,14.78
2017-05-29T18:03:20.068Z,14.18
2017-05-29T18:05:55.549Z,14.98
2017-05-29T18:08:30.816Z,15.00
2017-05-29T18:11:06.077Z,15.92
2017-05-29T18:13:41.325Z,15.36
2017-05-29T18:16:16.672Z,15.82
2017-05-29T18:18:51.973Z,16.43
2017-05-29T18:21:27.918Z,14.25
2017-05-29T18:24:03.265Z,14.65
2017-05-29T18:26:38.695Z,13.77
2017-05-29T18:29:13.927Z,14.67
2017-05-29T18:31:49.435Z,14.55
2017-05-29T18:34:25.194Z,14.72
2017-05-29T18:37:00.587Z,15.35
2017-05-29T18:39:35.948Z,14.35
2017-05-29T18:42:11.661Z,14.37
2017-05-29T18:44:46.967Z,15.60
2017-05-29T18:47:22.248Z,14.58
2017-05-29T18:49:57.565Z,15.40
2017-05-29T18:52:33.870Z,15.15
2017-05-29T18:55:09.238Z,14.22
2017-05-29T18:57:45.798Z,14.62
2017-05-29T19:00:22.138Z,18.38
2017-05-29T19:02:57.724Z,17.10
2017-05-29T19:05:33.932Z,16.73
2017-05-29T19:08:09.473Z,21.93
2017-05-29T19:10:44.880Z,19.02
2017-05-29T19:13:20.342Z,16.47
2017-05-29T19:15:55.702Z,15.30
2017-05-29T19:18:31.154Z,17.20
2017-05-29T19:21:06.424Z,16.45
2017-05-29T19:23:41.954Z,16.12
2017-05-29T19:26:17.212Z,17.15
2017-05-29T19:28:52.845Z,17.57
2017-05-29T19:31:30.859Z,17.05
2017-05-29T19:34:06.289Z,17.92
2017-05-29T19:36:41.535Z,16.75
2017-05-29T19:39:16.862Z,17.90
2017-05-29T19:41:52.125Z,17.45
2017-05-29T19:44:27.612Z,19.03
2017-05-29T19:47:02.890Z,17.35
2017-05-29T19:49:38.387Z,18.30
2017-05-29T19:52:14.020Z,19.38
2017-05-29T19:54:49.331Z,17.98
2017-05-29T19:57:24.701Z,17.90
2017-05-29T20:00:00.205Z,17.58
2017-05-29T20:02:35.543Z,18.55
2017-05-29T20:05:10.751Z,20.83
2017-05-29T20:07:46.376Z,19.58
2017-05-29T20:10:21.598Z,17.18
2017-05-29T20:12:56.897Z,19.00
2017-05-29T20:15:32.207Z,18.47
2017-05-29T20:18:07.810Z,19.03
2017-05-29T20:20:43.109Z,20.03
2017-05-29T20:23:18.508Z,18.45
2017-05-29T20:25:53.742Z,19.45
2017-05-29T20:28:28.977Z,18.78
2017-05-29T20:31:04.106Z,19.78
2017-05-29T20:33:39.506Z,17.80
2017-05-29T20:36:14.960Z,20.75
2017-05-29T20:38:50.262Z,18.23
2017-05-29T20:41:25.611Z,20.60
2017-05-29T20:44:01.224Z,19.68
2017-05-29T20:46:36.397Z,19.83
2017-05-29T20:49:11.629Z,20.68
2017-05-29T20:51:46.987Z,20.45
2017-05-29T20:54:27.689Z,23.07
2017-05-29T20:57:02.970Z,19.98
2017-05-29T20:59:38.239Z,19.37
2017-05-29T21:02:13.535Z,22.02
2017-05-29T21:04:48.882Z,20.57
2017-05-29T21:07:24.286Z,22.07
2017-05-29T21:10:00.454Z,21.58
2017-05-29T21:12:35.709Z,22.13
2017-05-29T21:15:10.872Z,23.02
2017-05-29T21:20:28.026Z,20.27
2017-05-29T21:23:03.255Z,21.08
2017-05-29T21:25:38.596Z,22.33
2017-05-29T21:28:13.849Z,21.00
2017-05-29T21:30:49.197Z,22.62
2017-05-29T21:33:24.763Z,21.88
2017-05-29T21:36:00.137Z,21.40
2017-05-29T21:38:35.398Z,24.00
2017-05-29T21:41:10.790Z,21.38
2017-05-29T21:43:46.376Z,21.27
2017-05-29T21:46:21.653Z,22.12
2017-05-29T21:48:57.054Z,22.02
2017-05-29T21:51:32.286Z,21.25
2017-05-29T21:54:07.597Z,21.23
2017-05-29T21:56:42.879Z,21.18
2017-05-29T21:59:18.504Z,20.02
2017-05-29T22:01:53.784Z,22.52
2017-05-29T22:04:29.036Z,20.05
2017-05-29T22:07:04.381Z,21.20
2017-05-29T22:09:39.854Z,21.22
2017-05-29T22:12:15.101Z,21.40
2017-05-29T22:14:50.517Z,21.52
2017-05-29T22:17:25.904Z,20.52
2017-05-29T22:20:01.208Z,21.38
2017-05-29T22:22:36.307Z,21.30
2017-05-29T22:25:11.551Z,22.42
2017-05-29T22:27:46.906Z,22.52
2017-05-29T22:30:22.260Z,20.38
2017-05-29T22:32:57.429Z,21.17
2017-05-29T22:35:32.709Z,20.38
2017-05-29T22:38:07.935Z,23.13
2017-05-29T22:40:43.289Z,23.38
2017-05-29T22:43:18.688Z,21.80
2017-05-29T22:45:54.149Z,22.88
2017-05-29T22:48:29.527Z,20.88
2017-05-29T22:51:04.827Z,20.93
2017-05-29T22:53:40.203Z,22.47
2017-05-29T22:56:15.549Z,23.53
2017-05-29T22:58:50.846Z,22.48
2017-05-29T23:01:26.110Z,23.02
2017-05-29T23:04:01.306Z,22.40
2017-05-29T23:06:36.623Z,23.93
2017-05-29T23:09:11.942Z,22.85
2017-05-29T23:11:47.212Z,23.20
2017-05-29T23:14:22.404Z,24.83
2017-05-29T23:16:57.986Z,24.32
2017-05-29T23:19:33.137Z,23.20
2017-05-29T23:22:08.466Z,24.25
2017-05-29T23:24:43.908Z,25.08
2017-05-29T23:27:19.266Z,25.92
2017-05-29T23:29:54.657Z,25.72
2017-05-29T23:32:29.999Z,25.53
2017-05-29T23:35:06.321Z,24.80
2017-05-29T23:37:41.503Z,25.08
2017-05-29T23:40:16.966Z,25.12
2017-05-29T23:42:52.175Z,25.52
2017-05-29T23:45:27.697Z,27.02
2017-05-29T23:48:02.915Z,27.15
2017-05-29T23:50:38.270Z,25.07
2017-05-29T23:53:13.479Z,25.92
2017-05-29T23:55:48.765Z,25.52
2017-05-29T23:58:24.174Z,26.52
